sensor_id;sensor_type;location;lat;lon;timestamp;temperature;humidity
12436;DHT22;6282;51.440;6.938;2023-04-24T00:01:07;11.10;99.90
12436;DHT22;6282;51.440;6.938;2023-04-24T00:03:36;11.20;99.90
12436;DHT22;6282;51.440;6.938;2023-04-24T00:06:04;11.10;99.90
12436;DHT22;6282;51.440;6.938;2023-04-24T00:08:32;11.20;99.90
12436;DHT22;6282;51.440;6.938;2023-04-24T00:10:59;11.10;99.90
12436;DHT22;6282;51.440;6.938;2023-04-24T00:13:25;11.20;99.90
12436;DHT22;6282;51.440;6.938;2023-04-24T00:15:53;11.10;99.90
12436;DHT22;6282;51.440;6.938;2023-04-24T00:18:20;11.10;99.90
12436;DHT22;6282;51.440;6.938;2023-04-24T00:20:48;11.00;99.90
12436;DHT22;6282;51.440;6.938;2023-04-24T00:23:15;11.00;99.90
12436;DHT22;6282;51.440;6.938;2023-04-24T00:25:42;11.00;99.90
12436;DHT22;6282;51.440;6.938;2023-04-24T00:28:09;11.20;99.90
12436;DHT22;6282;51.440;6.938;2023-04-24T00:30:36;11.20;99.90
12436;DHT22;6282;51.440;6.938;2023-04-24T00:33:03;11.00;99.90
12436;DHT22;6282;51.440;6.938;2023-04-24T00:35:29;10.90;99.90
12436;DHT22;6282;51.440;6.938;2023-04-24T00:37:58;10.90;99.90
12436;DHT22;6282;51.440;6.938;2023-04-24T00:40:27;10.80;99.90
12436;DHT22;6282;51.440;6.938;2023-04-24T00:42:54;10.80;99.90
12436;DHT22;6282;51.440;6.938;2023-04-24T00:45:21;10.80;99.90
12436;DHT22;6282;51.440;6.938;2023-04-24T00:47:48;10.80;99.90
12436;DHT22;6282;51.440;6.938;2023-04-24T00:50:16;10.60;99.90
12436;DHT22;6282;51.440;6.938;2023-04-24T00:52:43;10.50;99.90
12436;DHT22;6282;51.440;6.938;2023-04-24T00:55:11;10.40;99.90
12436;DHT22;6282;51.440;6.938;2023-04-24T00:57:38;10.30;99.90
12436;DHT22;6282;51.440;6.938;2023-04-24T01:00:06;10.30;99.90
12436;DHT22;6282;51.440;6.938;2023-04-24T01:02:36;10.30;99.90
12436;DHT22;6282;51.440;6.938;2023-04-24T01:05:06;10.30;99.90
12436;DHT22;6282;51.440;6.938;2023-04-24T01:07:45;10.30;99.90
12436;DHT22;6282;51.440;6.938;2023-04-24T01:10:27;10.40;99.90
12436;DHT22;6282;51.440;6.938;2023-04-24T01:12:56;10.30;99.90
12436;DHT22;6282;51.440;6.938;2023-04-24T01:15:23;10.40;99.90
12436;DHT22;6282;51.440;6.938;2023-04-24T01:17:50;10.20;99.90
12436;DHT22;6282;51.440;6.938;2023-04-24T01:20:17;10.20;99.90
12436;DHT22;6282;51.440;6.938;2023-04-24T01:22:46;10.30;99.90
12436;DHT22;6282;51.440;6.938;2023-04-24T01:25:12;10.10;99.90
12436;DHT22;6282;51.440;6.938;2023-04-24T01:27:39;10.00;99.90
12436;DHT22;6282;51.440;6.938;2023-04-24T01:30:07;9.90;99.90
12436;DHT22;6282;51.440;6.938;2023-04-24T01:32:34;9.90;99.90
12436;DHT22;6282;51.440;6.938;2023-04-24T01:35:02;10.00;99.90
12436;DHT22;6282;51.440;6.938;2023-04-24T01:37:29;9.90;99.90
12436;DHT22;6282;51.440;6.938;2023-04-24T01:39:59;9.80;99.90
12436;DHT22;6282;51.440;6.938;2023-04-24T01:42:26;9.80;99.90
12436;DHT22;6282;51.440;6.938;2023-04-24T01:44:53;9.80;99.90
12436;DHT22;6282;51.440;6.938;2023-04-24T01:47:21;9.70;99.90
12436;DHT22;6282;51.440;6.938;2023-04-24T01:49:48;9.60;99.90
12436;DHT22;6282;51.440;6.938;2023-04-24T01:52:16;9.70;99.90
12436;DHT22;6282;51.440;6.938;2023-04-24T01:54:44;9.50;99.90
12436;DHT22;6282;51.440;6.938;2023-04-24T01:57:13;9.50;99.90
12436;DHT22;6282;51.440;6.938;2023-04-24T01:59:41;9.50;99.90
12436;DHT22;6282;51.440;6.938;2023-04-24T02:02:08;9.40;99.90
12436;DHT22;6282;51.440;6.938;2023-04-24T02:04:35;9.40;99.90
12436;DHT22;6282;51.440;6.938;2023-04-24T02:07:01;9.40;99.90
12436;DHT22;6282;51.440;6.938;2023-04-24T02:09:28;9.40;99.90
12436;DHT22;6282;51.440;6.938;2023-04-24T02:11:55;9.40;99.90
12436;DHT22;6282;51.440;6.938;2023-04-24T02:14:24;9.40;99.90
12436;DHT22;6282;51.440;6.938;2023-04-24T02:16:51;9.40;99.90
12436;DHT22;6282;51.440;6.938;2023-04-24T02:19:18;9.60;99.90
12436;DHT22;6282;51.440;6.938;2023-04-24T02:21:45;9.40;99.90
12436;DHT22;6282;51.440;6.938;2023-04-24T02:24:12;9.40;99.90
12436;DHT22;6282;51.440;6.938;2023-04-24T02:26:39;9.50;99.90
12436;DHT22;6282;51.440;6.938;2023-04-24T02:29:06;9.30;99.90
12436;DHT22;6282;51.440;6.938;2023-04-24T02:31:34;9.30;99.90
12436;DHT22;6282;51.440;6.938;2023-04-24T02:34:01;9.20;99.90
12436;DHT22;6282;51.440;6.938;2023-04-24T02:36:27;9.30;99.90
12436;DHT22;6282;51.440;6.938;2023-04-24T02:38:55;9.50;99.90
12436;DHT22;6282;51.440;6.938;2023-04-24T02:41:22;9.50;99.90
12436;DHT22;6282;51.440;6.938;2023-04-24T02:43:49;9.40;99.90
12436;DHT22;6282;51.440;6.938;2023-04-24T02:46:24;9.20;99.90
12436;DHT22;6282;51.440;6.938;2023-04-24T02:48:50;9.20;99.90
12436;DHT22;6282;51.440;6.938;2023-04-24T02:51:18;9.30;99.90
12436;DHT22;6282;51.440;6.938;2023-04-24T02:53:44;9.30;99.90
12436;DHT22;6282;51.440;6.938;2023-04-24T02:56:11;9.30;99.90
12436;DHT22;6282;51.440;6.938;2023-04-24T02:58:38;9.30;99.90
12436;DHT22;6282;51.440;6.938;2023-04-24T03:01:05;9.30;99.90
12436;DHT22;6282;51.440;6.938;2023-04-24T03:03:33;9.30;99.90
12436;DHT22;6282;51.440;6.938;2023-04-24T03:06:00;9.30;99.90
12436;DHT22;6282;51.440;6.938;2023-04-24T03:08:27;9.30;99.90
12436;DHT22;6282;51.440;6.938;2023-04-24T03:10:54;9.30;99.90
12436;DHT22;6282;51.440;6.938;2023-04-24T03:13:21;9.40;99.90
12436;DHT22;6282;51.440;6.938;2023-04-24T03:15:48;9.30;99.90
12436;DHT22;6282;51.440;6.938;2023-04-24T03:18:15;9.30;99.90
12436;DHT22;6282;51.440;6.938;2023-04-24T03:20:45;9.30;99.90
12436;DHT22;6282;51.440;6.938;2023-04-24T03:23:13;9.30;99.90
12436;DHT22;6282;51.440;6.938;2023-04-24T03:25:39;9.30;99.90
12436;DHT22;6282;51.440;6.938;2023-04-24T03:28:08;9.40;99.90
12436;DHT22;6282;51.440;6.938;2023-04-24T03:30:35;9.40;99.90
12436;DHT22;6282;51.440;6.938;2023-04-24T03:33:02;9.40;99.90
12436;DHT22;6282;51.440;6.938;2023-04-24T03:35:28;9.40;99.90
12436;DHT22;6282;51.440;6.938;2023-04-24T03:37:57;9.40;99.90
12436;DHT22;6282;51.440;6.938;2023-04-24T03:40:23;9.40;99.90
12436;DHT22;6282;51.440;6.938;2023-04-24T03:42:50;9.40;99.90
12436;DHT22;6282;51.440;6.938;2023-04-24T03:45:17;9.40;99.90
12436;DHT22;6282;51.440;6.938;2023-04-24T03:47:44;9.40;99.90
12436;DHT22;6282;51.440;6.938;2023-04-24T03:50:11;9.40;99.90
12436;DHT22;6282;51.440;6.938;2023-04-24T03:52:38;9.40;99.90
12436;DHT22;6282;51.440;6.938;2023-04-24T03:55:07;9.60;99.90
12436;DHT22;6282;51.440;6.938;2023-04-24T03:57:34;9.40;99.90
12436;DHT22;6282;51.440;6.938;2023-04-24T04:00:00;9.40;99.90
12436;DHT22;6282;51.440;6.938;2023-04-24T04:02:31;9.40;99.90
12436;DHT22;6282;51.440;6.938;2023-04-24T04:04:58;9.40;99.90
12436;DHT22;6282;51.440;6.938;2023-04-24T04:07:25;9.40;99.90
12436;DHT22;6282;51.440;6.938;2023-04-24T04:09:52;9.40;99.90
12436;DHT22;6282;51.440;6.938;2023-04-24T04:12:20;9.40;99.90
12436;DHT22;6282;51.440;6.938;2023-04-24T04:14:47;9.40;99.90
12436;DHT22;6282;51.440;6.938;2023-04-24T04:17:14;9.40;99.90
12436;DHT22;6282;51.440;6.938;2023-04-24T04:19:40;9.50;99.90
12436;DHT22;6282;51.440;6.938;2023-04-24T04:22:07;9.40;99.90
12436;DHT22;6282;51.440;6.938;2023-04-24T04:24:34;9.60;99.90
12436;DHT22;6282;51.440;6.938;2023-04-24T04:27:03;9.50;99.90
12436;DHT22;6282;51.440;6.938;2023-04-24T04:29:32;9.50;99.90
12436;DHT22;6282;51.440;6.938;2023-04-24T04:32:01;9.50;99.90
12436;DHT22;6282;51.440;6.938;2023-04-24T04:34:28;9.50;99.90
12436;DHT22;6282;51.440;6.938;2023-04-24T04:36:57;9.40;99.90
12436;DHT22;6282;51.440;6.938;2023-04-24T04:39:26;9.40;99.90
12436;DHT22;6282;51.440;6.938;2023-04-24T04:41:55;9.40;99.90
12436;DHT22;6282;51.440;6.938;2023-04-24T04:44:22;9.50;99.90
12436;DHT22;6282;51.440;6.938;2023-04-24T04:46:51;9.40;99.90
12436;DHT22;6282;51.440;6.938;2023-04-24T04:49:21;9.50;99.90
12436;DHT22;6282;51.440;6.938;2023-04-24T04:51:49;9.50;99.90
12436;DHT22;6282;51.440;6.938;2023-04-24T04:54:16;9.60;99.90
12436;DHT22;6282;51.440;6.938;2023-04-24T04:56:43;9.40;99.90
12436;DHT22;6282;51.440;6.938;2023-04-24T04:59:10;9.40;99.90
12436;DHT22;6282;51.440;6.938;2023-04-24T05:01:38;9.40;99.90
12436;DHT22;6282;51.440;6.938;2023-04-24T05:04:07;9.40;99.90
12436;DHT22;6282;51.440;6.938;2023-04-24T05:06:33;9.40;99.90
12436;DHT22;6282;51.440;6.938;2023-04-24T05:09:00;9.40;99.90
12436;DHT22;6282;51.440;6.938;2023-04-24T05:11:28;9.40;99.90
12436;DHT22;6282;51.440;6.938;2023-04-24T05:13:55;9.50;99.90
12436;DHT22;6282;51.440;6.938;2023-04-24T05:16:22;9.30;99.90
12436;DHT22;6282;51.440;6.938;2023-04-24T05:18:49;9.30;99.90
12436;DHT22;6282;51.440;6.938;2023-04-24T05:21:17;9.30;99.90
12436;DHT22;6282;51.440;6.938;2023-04-24T05:23:44;9.30;99.90
12436;DHT22;6282;51.440;6.938;2023-04-24T05:26:11;9.30;99.90
12436;DHT22;6282;51.440;6.938;2023-04-24T05:28:38;9.00;99.90
12436;DHT22;6282;51.440;6.938;2023-04-24T05:31:04;8.70;99.90
12436;DHT22;6282;51.440;6.938;2023-04-24T05:33:32;8.50;99.90
12436;DHT22;6282;51.440;6.938;2023-04-24T05:35:58;8.50;99.90
12436;DHT22;6282;51.440;6.938;2023-04-24T05:38:27;8.40;99.90
12436;DHT22;6282;51.440;6.938;2023-04-24T05:40:53;8.40;99.90
12436;DHT22;6282;51.440;6.938;2023-04-24T05:43:20;8.30;99.90
12436;DHT22;6282;51.440;6.938;2023-04-24T05:45:47;8.30;99.90
12436;DHT22;6282;51.440;6.938;2023-04-24T05:48:14;8.30;99.90
12436;DHT22;6282;51.440;6.938;2023-04-24T05:50:42;8.30;99.90
12436;DHT22;6282;51.440;6.938;2023-04-24T05:53:08;8.40;99.90
12436;DHT22;6282;51.440;6.938;2023-04-24T05:55:37;8.50;99.90
12436;DHT22;6282;51.440;6.938;2023-04-24T05:58:04;8.50;99.90
12436;DHT22;6282;51.440;6.938;2023-04-24T06:00:31;8.40;99.90
12436;DHT22;6282;51.440;6.938;2023-04-24T06:02:59;8.50;99.90
12436;DHT22;6282;51.440;6.938;2023-04-24T06:05:26;8.50;99.90
12436;DHT22;6282;51.440;6.938;2023-04-24T06:07:53;8.50;99.90
12436;DHT22;6282;51.440;6.938;2023-04-24T06:10:20;8.50;99.90
12436;DHT22;6282;51.440;6.938;2023-04-24T06:12:48;8.60;99.90
12436;DHT22;6282;51.440;6.938;2023-04-24T06:15:15;8.60;99.90
12436;DHT22;6282;51.440;6.938;2023-04-24T06:17:42;8.60;99.90
12436;DHT22;6282;51.440;6.938;2023-04-24T06:20:09;8.60;99.90
12436;DHT22;6282;51.440;6.938;2023-04-24T06:22:37;8.50;99.90
12436;DHT22;6282;51.440;6.938;2023-04-24T06:25:06;8.60;99.90
12436;DHT22;6282;51.440;6.938;2023-04-24T06:27:33;8.50;99.90
12436;DHT22;6282;51.440;6.938;2023-04-24T06:30:01;8.40;99.90
12436;DHT22;6282;51.440;6.938;2023-04-24T06:32:28;8.40;99.90
12436;DHT22;6282;51.440;6.938;2023-04-24T06:34:56;8.40;99.90
12436;DHT22;6282;51.440;6.938;2023-04-24T06:37:23;8.50;99.90
12436;DHT22;6282;51.440;6.938;2023-04-24T06:39:50;8.50;99.90
12436;DHT22;6282;51.440;6.938;2023-04-24T06:42:16;8.30;99.90
12436;DHT22;6282;51.440;6.938;2023-04-24T06:44:46;8.30;99.90
12436;DHT22;6282;51.440;6.938;2023-04-24T06:47:14;8.30;99.90
12436;DHT22;6282;51.440;6.938;2023-04-24T06:49:41;8.40;99.90
12436;DHT22;6282;51.440;6.938;2023-04-24T06:52:08;8.40;99.90
12436;DHT22;6282;51.440;6.938;2023-04-24T06:54:35;8.40;99.90
12436;DHT22;6282;51.440;6.938;2023-04-24T06:57:02;8.40;99.90
12436;DHT22;6282;51.440;6.938;2023-04-24T06:59:29;8.40;99.90
12436;DHT22;6282;51.440;6.938;2023-04-24T07:01:56;8.40;99.90
12436;DHT22;6282;51.440;6.938;2023-04-24T07:04:25;8.40;99.90
12436;DHT22;6282;51.440;6.938;2023-04-24T07:06:52;8.30;99.90
12436;DHT22;6282;51.440;6.938;2023-04-24T07:09:21;8.30;99.90
12436;DHT22;6282;51.440;6.938;2023-04-24T07:11:49;8.30;99.90
12436;DHT22;6282;51.440;6.938;2023-04-24T07:14:16;8.30;99.90
12436;DHT22;6282;51.440;6.938;2023-04-24T07:16:43;8.30;99.90
12436;DHT22;6282;51.440;6.938;2023-04-24T07:19:11;8.40;99.90
12436;DHT22;6282;51.440;6.938;2023-04-24T07:21:40;8.40;99.90
12436;DHT22;6282;51.440;6.938;2023-04-24T07:24:07;8.50;99.90
12436;DHT22;6282;51.440;6.938;2023-04-24T07:26:37;8.40;99.90
12436;DHT22;6282;51.440;6.938;2023-04-24T07:29:04;8.40;99.90
12436;DHT22;6282;51.440;6.938;2023-04-24T07:31:31;8.40;99.90
12436;DHT22;6282;51.440;6.938;2023-04-24T07:33:58;8.30;99.90
12436;DHT22;6282;51.440;6.938;2023-04-24T07:36:24;8.50;99.90
12436;DHT22;6282;51.440;6.938;2023-04-24T07:38:54;8.40;99.90
12436;DHT22;6282;51.440;6.938;2023-04-24T07:41:22;8.40;99.90
12436;DHT22;6282;51.440;6.938;2023-04-24T07:43:49;8.30;99.90
12436;DHT22;6282;51.440;6.938;2023-04-24T07:46:16;8.50;99.90
12436;DHT22;6282;51.440;6.938;2023-04-24T07:48:43;8.60;99.90
12436;DHT22;6282;51.440;6.938;2023-04-24T07:51:11;8.70;99.90
12436;DHT22;6282;51.440;6.938;2023-04-24T07:53:38;8.60;99.90
12436;DHT22;6282;51.440;6.938;2023-04-24T07:56:07;8.40;99.90
12436;DHT22;6282;51.440;6.938;2023-04-24T07:58:34;8.40;99.90
12436;DHT22;6282;51.440;6.938;2023-04-24T08:01:01;8.10;99.90
12436;DHT22;6282;51.440;6.938;2023-04-24T08:03:28;8.20;99.90
12436;DHT22;6282;51.440;6.938;2023-04-24T08:05:55;8.00;99.90
12436;DHT22;6282;51.440;6.938;2023-04-24T08:08:22;8.10;99.90
12436;DHT22;6282;51.440;6.938;2023-04-24T08:10:50;8.00;99.90
12436;DHT22;6282;51.440;6.938;2023-04-24T08:13:18;8.00;99.90
12436;DHT22;6282;51.440;6.938;2023-04-24T08:15:45;8.10;99.90
12436;DHT22;6282;51.440;6.938;2023-04-24T08:18:11;7.90;99.90
12436;DHT22;6282;51.440;6.938;2023-04-24T08:20:39;8.00;99.90
12436;DHT22;6282;51.440;6.938;2023-04-24T08:23:06;7.80;99.90
12436;DHT22;6282;51.440;6.938;2023-04-24T08:25:33;7.80;99.90
12436;DHT22;6282;51.440;6.938;2023-04-24T08:28:01;7.70;99.90
12436;DHT22;6282;51.440;6.938;2023-04-24T08:30:30;7.60;99.90
12436;DHT22;6282;51.440;6.938;2023-04-24T08:32:57;7.50;99.90
12436;DHT22;6282;51.440;6.938;2023-04-24T08:35:24;7.50;99.90
12436;DHT22;6282;51.440;6.938;2023-04-24T08:37:52;7.50;99.90
12436;DHT22;6282;51.440;6.938;2023-04-24T08:40:23;7.80;99.90
12436;DHT22;6282;51.440;6.938;2023-04-24T08:42:54;7.80;99.90
12436;DHT22;6282;51.440;6.938;2023-04-24T08:45:21;7.90;99.90
12436;DHT22;6282;51.440;6.938;2023-04-24T08:47:50;8.10;99.90
12436;DHT22;6282;51.440;6.938;2023-04-24T08:50:18;8.30;99.90
12436;DHT22;6282;51.440;6.938;2023-04-24T08:52:45;8.50;99.90
12436;DHT22;6282;51.440;6.938;2023-04-24T08:55:13;8.50;99.90
12436;DHT22;6282;51.440;6.938;2023-04-24T08:57:42;8.40;99.90
12436;DHT22;6282;51.440;6.938;2023-04-24T09:00:11;8.60;99.90
12436;DHT22;6282;51.440;6.938;2023-04-24T09:02:41;8.60;99.90
12436;DHT22;6282;51.440;6.938;2023-04-24T09:05:10;8.80;99.90
12436;DHT22;6282;51.440;6.938;2023-04-24T09:07:39;9.10;99.90
12436;DHT22;6282;51.440;6.938;2023-04-24T09:10:08;8.80;99.90
12436;DHT22;6282;51.440;6.938;2023-04-24T09:12:35;8.70;99.90
12436;DHT22;6282;51.440;6.938;2023-04-24T09:15:03;8.70;99.90
12436;DHT22;6282;51.440;6.938;2023-04-24T09:17:30;8.50;99.90
12436;DHT22;6282;51.440;6.938;2023-04-24T09:19:57;8.60;99.90
12436;DHT22;6282;51.440;6.938;2023-04-24T09:22:25;8.60;99.90
12436;DHT22;6282;51.440;6.938;2023-04-24T09:25:01;8.70;99.90
12436;DHT22;6282;51.440;6.938;2023-04-24T09:27:29;8.60;99.90
12436;DHT22;6282;51.440;6.938;2023-04-24T09:29:56;8.70;99.90
12436;DHT22;6282;51.440;6.938;2023-04-24T09:32:24;8.70;99.90
12436;DHT22;6282;51.440;6.938;2023-04-24T09:35:05;8.60;99.90
12436;DHT22;6282;51.440;6.938;2023-04-24T09:37:36;8.50;99.90
12436;DHT22;6282;51.440;6.938;2023-04-24T09:40:15;8.90;99.90
12436;DHT22;6282;51.440;6.938;2023-04-24T09:42:45;8.60;99.90
12436;DHT22;6282;51.440;6.938;2023-04-24T09:45:12;8.70;99.90
12436;DHT22;6282;51.440;6.938;2023-04-24T09:47:41;8.70;99.90
12436;DHT22;6282;51.440;6.938;2023-04-24T09:50:12;8.70;99.90
12436;DHT22;6282;51.440;6.938;2023-04-24T09:52:42;8.70;99.90
12436;DHT22;6282;51.440;6.938;2023-04-24T09:55:15;8.50;99.90
12436;DHT22;6282;51.440;6.938;2023-04-24T09:57:50;8.30;99.90
12436;DHT22;6282;51.440;6.938;2023-04-24T10:00:24;8.40;99.90
12436;DHT22;6282;51.440;6.938;2023-04-24T10:02:54;8.70;99.90
12436;DHT22;6282;51.440;6.938;2023-04-24T10:05:27;8.50;99.90
12436;DHT22;6282;51.440;6.938;2023-04-24T10:07:59;8.30;99.90
12436;DHT22;6282;51.440;6.938;2023-04-24T10:10:26;8.40;99.90
12436;DHT22;6282;51.440;6.938;2023-04-24T10:12:53;8.40;99.90
12436;DHT22;6282;51.440;6.938;2023-04-24T10:15:21;8.60;99.90
12436;DHT22;6282;51.440;6.938;2023-04-24T10:17:49;8.70;99.90
12436;DHT22;6282;51.440;6.938;2023-04-24T10:20:19;8.50;99.90
12436;DHT22;6282;51.440;6.938;2023-04-24T10:22:48;8.50;99.90
12436;DHT22;6282;51.440;6.938;2023-04-24T10:25:18;8.60;99.90
12436;DHT22;6282;51.440;6.938;2023-04-24T10:27:47;8.50;99.90
12436;DHT22;6282;51.440;6.938;2023-04-24T10:30:15;8.80;99.90
12436;DHT22;6282;51.440;6.938;2023-04-24T10:32:43;8.70;99.90
12436;DHT22;6282;51.440;6.938;2023-04-24T10:35:11;8.80;99.90
12436;DHT22;6282;51.440;6.938;2023-04-24T10:37:40;8.80;99.90
12436;DHT22;6282;51.440;6.938;2023-04-24T10:40:09;8.50;99.90
12436;DHT22;6282;51.440;6.938;2023-04-24T10:42:40;8.50;99.90
12436;DHT22;6282;51.440;6.938;2023-04-24T10:45:16;8.50;99.90
12436;DHT22;6282;51.440;6.938;2023-04-24T10:47:51;8.80;99.90
12436;DHT22;6282;51.440;6.938;2023-04-24T10:50:18;8.80;99.90
12436;DHT22;6282;51.440;6.938;2023-04-24T10:52:46;8.60;99.90
12436;DHT22;6282;51.440;6.938;2023-04-24T10:55:13;8.90;99.90
12436;DHT22;6282;51.440;6.938;2023-04-24T10:58:01;8.90;99.90
12436;DHT22;6282;51.440;6.938;2023-04-24T11:00:28;8.90;99.90
12436;DHT22;6282;51.440;6.938;2023-04-24T11:02:56;8.90;99.90
12436;DHT22;6282;51.440;6.938;2023-04-24T11:05:49;9.20;99.90
12436;DHT22;6282;51.440;6.938;2023-04-24T11:08:23;9.20;99.90
12436;DHT22;6282;51.440;6.938;2023-04-24T11:10:56;9.30;99.90
12436;DHT22;6282;51.440;6.938;2023-04-24T11:13:25;9.30;99.90
12436;DHT22;6282;51.440;6.938;2023-04-24T11:16:14;9.10;99.90
12436;DHT22;6282;51.440;6.938;2023-04-24T11:18:42;9.20;99.90
12436;DHT22;6282;51.440;6.938;2023-04-24T11:21:12;9.30;99.90
12436;DHT22;6282;51.440;6.938;2023-04-24T11:23:39;9.60;99.90
12436;DHT22;6282;51.440;6.938;2023-04-24T11:26:14;9.50;99.90
12436;DHT22;6282;51.440;6.938;2023-04-24T11:28:48;9.50;99.90
12436;DHT22;6282;51.440;6.938;2023-04-24T11:31:34;9.50;99.90
12436;DHT22;6282;51.440;6.938;2023-04-24T11:34:07;9.40;99.90
12436;DHT22;6282;51.440;6.938;2023-04-24T11:36:34;9.30;99.90
12436;DHT22;6282;51.440;6.938;2023-04-24T11:39:02;9.20;99.90
12436;DHT22;6282;51.440;6.938;2023-04-24T11:41:29;9.20;99.90
12436;DHT22;6282;51.440;6.938;2023-04-24T11:43:57;9.10;99.90
12436;DHT22;6282;51.440;6.938;2023-04-24T11:46:27;9.00;99.90
12436;DHT22;6282;51.440;6.938;2023-04-24T11:48:55;9.10;99.90
12436;DHT22;6282;51.440;6.938;2023-04-24T11:51:22;9.10;99.90
12436;DHT22;6282;51.440;6.938;2023-04-24T11:53:50;9.20;99.90
12436;DHT22;6282;51.440;6.938;2023-04-24T11:56:17;9.30;99.90
12436;DHT22;6282;51.440;6.938;2023-04-24T11:58:45;9.50;99.90
12436;DHT22;6282;51.440;6.938;2023-04-24T12:01:13;9.80;99.90
12436;DHT22;6282;51.440;6.938;2023-04-24T12:03:40;9.90;99.90
12436;DHT22;6282;51.440;6.938;2023-04-24T12:06:11;10.00;99.90
12436;DHT22;6282;51.440;6.938;2023-04-24T12:08:38;10.10;99.90
12436;DHT22;6282;51.440;6.938;2023-04-24T12:11:06;10.00;99.90
12436;DHT22;6282;51.440;6.938;2023-04-24T12:13:34;10.10;99.90
12436;DHT22;6282;51.440;6.938;2023-04-24T12:16:02;10.30;99.90
12436;DHT22;6282;51.440;6.938;2023-04-24T12:18:31;10.50;99.90
12436;DHT22;6282;51.440;6.938;2023-04-24T12:21:17;10.20;99.90
12436;DHT22;6282;51.440;6.938;2023-04-24T12:23:44;9.80;99.90
12436;DHT22;6282;51.440;6.938;2023-04-24T12:26:11;9.70;99.90
12436;DHT22;6282;51.440;6.938;2023-04-24T12:28:39;9.90;99.90
12436;DHT22;6282;51.440;6.938;2023-04-24T12:31:06;9.90;99.90
12436;DHT22;6282;51.440;6.938;2023-04-24T12:33:35;9.70;99.90
12436;DHT22;6282;51.440;6.938;2023-04-24T12:36:02;9.70;99.90
12436;DHT22;6282;51.440;6.938;2023-04-24T12:38:30;9.80;99.90
12436;DHT22;6282;51.440;6.938;2023-04-24T12:41:06;9.80;99.90
12436;DHT22;6282;51.440;6.938;2023-04-24T12:43:33;10.00;99.90
12436;DHT22;6282;51.440;6.938;2023-04-24T12:46:00;10.10;99.90
12436;DHT22;6282;51.440;6.938;2023-04-24T12:48:27;10.20;99.90
12436;DHT22;6282;51.440;6.938;2023-04-24T12:50:57;10.20;99.90
12436;DHT22;6282;51.440;6.938;2023-04-24T12:53:26;10.20;99.90
12436;DHT22;6282;51.440;6.938;2023-04-24T12:55:55;10.20;99.90
12436;DHT22;6282;51.440;6.938;2023-04-24T12:58:22;10.30;99.90
12436;DHT22;6282;51.440;6.938;2023-04-24T13:00:49;10.40;99.90
12436;DHT22;6282;51.440;6.938;2023-04-24T13:03:15;10.50;99.90
12436;DHT22;6282;51.440;6.938;2023-04-24T13:05:43;10.60;99.90
12436;DHT22;6282;51.440;6.938;2023-04-24T13:08:11;10.40;99.90
12436;DHT22;6282;51.440;6.938;2023-04-24T13:10:39;10.70;99.90
12436;DHT22;6282;51.440;6.938;2023-04-24T13:13:06;10.80;99.90
12436;DHT22;6282;51.440;6.938;2023-04-24T13:15:33;10.70;99.90
12436;DHT22;6282;51.440;6.938;2023-04-24T13:18:01;10.70;99.90
12436;DHT22;6282;51.440;6.938;2023-04-24T13:20:27;10.20;99.90
12436;DHT22;6282;51.440;6.938;2023-04-24T13:22:54;10.20;99.90
12436;DHT22;6282;51.440;6.938;2023-04-24T13:25:22;10.20;99.90
12436;DHT22;6282;51.440;6.938;2023-04-24T13:27:50;10.20;99.90
12436;DHT22;6282;51.440;6.938;2023-04-24T13:30:17;10.10;99.90
12436;DHT22;6282;51.440;6.938;2023-04-24T13:32:44;10.20;99.90
12436;DHT22;6282;51.440;6.938;2023-04-24T13:35:11;10.10;99.90
12436;DHT22;6282;51.440;6.938;2023-04-24T13:37:38;10.10;99.90
12436;DHT22;6282;51.440;6.938;2023-04-24T13:40:05;10.40;99.90
12436;DHT22;6282;51.440;6.938;2023-04-24T13:42:34;10.40;99.90
12436;DHT22;6282;51.440;6.938;2023-04-24T13:45:01;10.30;99.90
12436;DHT22;6282;51.440;6.938;2023-04-24T13:47:28;10.20;99.90
12436;DHT22;6282;51.440;6.938;2023-04-24T13:49:54;10.00;99.90
12436;DHT22;6282;51.440;6.938;2023-04-24T13:52:21;10.10;99.90
12436;DHT22;6282;51.440;6.938;2023-04-24T13:54:48;10.10;99.90
12436;DHT22;6282;51.440;6.938;2023-04-24T13:57:15;10.20;99.90
12436;DHT22;6282;51.440;6.938;2023-04-24T13:59:44;10.30;99.90
12436;DHT22;6282;51.440;6.938;2023-04-24T14:02:11;10.50;99.90
12436;DHT22;6282;51.440;6.938;2023-04-24T14:04:38;10.50;99.90
12436;DHT22;6282;51.440;6.938;2023-04-24T14:07:05;10.50;99.90
12436;DHT22;6282;51.440;6.938;2023-04-24T14:09:33;10.70;99.90
12436;DHT22;6282;51.440;6.938;2023-04-24T14:12:00;10.90;99.90
12436;DHT22;6282;51.440;6.938;2023-04-24T14:14:27;10.80;99.90
12436;DHT22;6282;51.440;6.938;2023-04-24T14:16:57;10.70;99.90
12436;DHT22;6282;51.440;6.938;2023-04-24T14:19:24;10.90;99.90
12436;DHT22;6282;51.440;6.938;2023-04-24T14:21:50;10.60;99.90
12436;DHT22;6282;51.440;6.938;2023-04-24T14:24:18;10.70;99.90
12436;DHT22;6282;51.440;6.938;2023-04-24T14:26:44;10.80;99.90
12436;DHT22;6282;51.440;6.938;2023-04-24T14:29:11;10.60;99.90
12436;DHT22;6282;51.440;6.938;2023-04-24T14:31:38;10.70;99.90
12436;DHT22;6282;51.440;6.938;2023-04-24T14:34:07;10.50;99.90
12436;DHT22;6282;51.440;6.938;2023-04-24T14:36:34;10.60;99.90
12436;DHT22;6282;51.440;6.938;2023-04-24T14:39:00;10.50;99.90
12436;DHT22;6282;51.440;6.938;2023-04-24T14:41:31;10.40;99.90
12436;DHT22;6282;51.440;6.938;2023-04-24T14:44:01;10.40;99.90
12436;DHT22;6282;51.440;6.938;2023-04-24T14:46:28;10.30;99.90
12436;DHT22;6282;51.440;6.938;2023-04-24T14:48:55;10.30;99.90
12436;DHT22;6282;51.440;6.938;2023-04-24T14:51:24;10.10;99.90
12436;DHT22;6282;51.440;6.938;2023-04-24T14:53:52;10.10;99.90
12436;DHT22;6282;51.440;6.938;2023-04-24T14:56:19;9.90;99.90
12436;DHT22;6282;51.440;6.938;2023-04-24T14:58:46;9.70;99.90
12436;DHT22;6282;51.440;6.938;2023-04-24T15:01:13;9.80;99.90
12436;DHT22;6282;51.440;6.938;2023-04-24T15:03:39;9.80;99.90
12436;DHT22;6282;51.440;6.938;2023-04-24T15:06:06;9.90;99.90
12436;DHT22;6282;51.440;6.938;2023-04-24T15:08:34;9.70;99.90
12436;DHT22;6282;51.440;6.938;2023-04-24T15:11:01;9.90;99.90
12436;DHT22;6282;51.440;6.938;2023-04-24T15:13:28;10.00;99.90
12436;DHT22;6282;51.440;6.938;2023-04-24T15:15:55;10.00;99.90
12436;DHT22;6282;51.440;6.938;2023-04-24T15:18:22;10.10;99.90
12436;DHT22;6282;51.440;6.938;2023-04-24T15:20:48;10.20;99.90
12436;DHT22;6282;51.440;6.938;2023-04-24T15:23:15;10.30;99.90
12436;DHT22;6282;51.440;6.938;2023-04-24T15:25:43;10.40;99.90
12436;DHT22;6282;51.440;6.938;2023-04-24T15:28:11;10.50;99.90
12436;DHT22;6282;51.440;6.938;2023-04-24T15:30:38;10.40;99.90
12436;DHT22;6282;51.440;6.938;2023-04-24T15:33:05;10.30;99.90
12436;DHT22;6282;51.440;6.938;2023-04-24T15:35:32;10.20;99.90
12436;DHT22;6282;51.440;6.938;2023-04-24T15:37:58;10.50;99.90
12436;DHT22;6282;51.440;6.938;2023-04-24T15:40:25;10.50;99.90
12436;DHT22;6282;51.440;6.938;2023-04-24T15:42:54;10.20;99.90
12436;DHT22;6282;51.440;6.938;2023-04-24T15:45:21;10.40;99.90
12436;DHT22;6282;51.440;6.938;2023-04-24T15:47:50;10.40;99.90
12436;DHT22;6282;51.440;6.938;2023-04-24T15:50:17;10.30;99.90
12436;DHT22;6282;51.440;6.938;2023-04-24T15:52:44;10.40;99.90
12436;DHT22;6282;51.440;6.938;2023-04-24T15:55:10;10.40;99.90
12436;DHT22;6282;51.440;6.938;2023-04-24T15:57:38;10.30;99.90
12436;DHT22;6282;51.440;6.938;2023-04-24T16:00:07;10.10;99.90
12436;DHT22;6282;51.440;6.938;2023-04-24T16:02:35;10.20;99.90